Aérodrome :
LOGIN :

S'inscrire | Disclaimer

   EN    FR    IT 

 










Légende :    VFR   VFR Marginal   IFR   IFR Intensif   IFR Très Intensif
Visi : 
Plafond : 
>= 8 km
>= 3000ft
5 à 8 km
1000 à 3000 ft
1500m à 5 km
500 à 1000 ft
800 à 1500m
200 à 500 ft
< 800m
< 200 ft
Symboles :   Orages  Brouillard  Fortes neiges  Fortes précipitations  Vent > 20 kt
SIGMETs :   Divers  Orages  Givrage  Turbulence  Onde Orograph.  Cendres Volcan.






- Altitude de l'aérodrome : 464 ft
- Code IATA : EVX


LFOE - Evreux

DERNIER METAR :
  • 060500Z AUTO /////KT 6000 -RA FEW007/// BKN076/// OVC090/// ///TCU 02/02 Q1017

METARs EXPIRÉS :
  • 060430Z AUTO /////KT 6000 ///TCU 02/02 Q1017
  • 060400Z AUTO 20010KT 6000 ///TCU 02/02 Q1018 TEMPO 4000 RA SCT007 BKN015
  • 060330Z AUTO 21009KT 6000 NSC 02/02 Q1018
  • 060300Z AUTO 20010KT 6000 NSC 01/01 Q1018
  • 060230Z AUTO 20010KT 6000 NSC 01/01 Q1018

TAF TAF LFOE
Valide du 06 à 03h jusqu'au 07 à 03h UTC


060200Z 0603/0703 21012KT 6000 -RA BKN055
PROB40
TEMPO 0603/0610 21010G20KT 4000 RA SCT007 BKN015
BECMG 0608/0610 21020G30KT
BECMG 0610/0613 9999 NSW BKN020
TEMPO 0616/0621 4000 -RA BKN010 OVC020
BECMG 0621/0623 23012KT



MET'MAP, la Météo Aéronautique d'un coup d'oeil ! - Copyright ORBIFLY Décembre 2007 - Disclaimer

ORBIFLY MET'MAP TEAM :

Programmation & Développement : Alexandra Zaïnal
Sur une idée originale de : Baudouin d'Aumeries
Assistance à la programmation : Marc-Olivier Méhu
Soutien technique & logistique : Manuel Goepfert

Contact : metmap@orbifly.com




SOURCES & CREDITS :

   NOAA